createdAt,value
2023-04-12T00:01:29.214Z,42.78
2023-04-12T00:06:33.554Z,52.78
2023-04-12T00:11:37.077Z,50.20
2023-04-12T00:16:41.825Z,47.53
2023-04-12T00:21:45.264Z,40.88
2023-04-12T00:26:48.440Z,48.10
2023-04-12T00:31:53.306Z,44.80
2023-04-12T00:36:56.619Z,48.03
2023-04-12T00:42:04.654Z,45.33
2023-04-12T00:47:09.474Z,46.70
2023-04-12T00:52:18.156Z,46.22
2023-04-12T00:57:22.487Z,46.13
2023-04-12T01:02:27.920Z,46.22
2023-04-12T01:07:45.239Z,53.50
2023-04-12T01:13:00.594Z,44.40
2023-04-12T01:18:09.914Z,53.72
2023-04-12T01:23:44.846Z,45.53
2023-04-12T01:28:53.374Z,48.70
2023-04-12T01:33:59.442Z,44.50
2023-04-12T01:39:04.729Z,42.90
2023-04-12T01:44:09.474Z,50.80
2023-04-12T01:49:14.136Z,43.95
2023-04-12T01:54:23.131Z,45.67
2023-04-12T01:59:33.047Z,52.70
2023-04-12T02:04:37.695Z,50.55
2023-04-12T02:09:41.349Z,48.28
2023-04-12T02:14:46.044Z,49.92
2023-04-12T02:19:49.214Z,57.95
2023-04-12T02:24:52.561Z,54.90
2023-04-12T02:29:58.795Z,51.00
2023-04-12T02:35:02.955Z,57.53
2023-04-12T02:40:10.172Z,52.60
2023-04-12T02:45:14.864Z,46.67
2023-04-12T02:50:18.211Z,50.33
2023-04-12T02:55:22.102Z,54.30
2023-04-12T03:00:27.698Z,48.38
2023-04-12T03:05:31.183Z,57.53
2023-04-12T03:10:34.393Z,55.75
2023-04-12T03:15:39.128Z,54.25
2023-04-12T03:20:45.383Z,48.03
2023-04-12T03:25:50.937Z,58.17
2023-04-12T03:30:55.624Z,54.53
2023-04-12T03:35:59.269Z,53.92
2023-04-12T03:41:02.505Z,50.78
2023-04-12T03:46:08.060Z,50.55
2023-04-12T03:51:12.287Z,63.28
2023-04-12T03:56:15.680Z,53.92
2023-04-12T04:01:21.321Z,46.45
2023-04-12T04:06:24.742Z,45.85
2023-04-12T04:11:29.151Z,45.40
2023-04-12T04:16:33.863Z,47.00
2023-04-12T04:21:37.403Z,47.65
2023-04-12T04:26:40.755Z,49.67
2023-04-12T04:31:46.326Z,51.05
2023-04-12T04:36:49.679Z,54.08
2023-04-12T04:41:55.204Z,42.45
2023-04-12T04:47:00.883Z,57.35
2023-04-12T04:52:04.531Z,51.83
2023-04-12T04:57:11.609Z,49.85
2023-04-12T05:02:16.978Z,51.75
2023-04-12T05:07:20.254Z,43.53
2023-04-12T05:12:23.530Z,44.53
2023-04-12T05:17:28.155Z,35.58
2023-04-12T05:22:31.883Z,42.35
2023-04-12T05:27:35.237Z,37.10
2023-04-12T05:32:39.988Z,31.52
2023-04-12T05:37:43.258Z,32.30
2023-04-12T05:42:46.486Z,37.20
2023-04-12T05:47:51.293Z,27.17
2023-04-12T05:52:56.165Z,24.38
2023-04-12T05:57:59.568Z,20.85
2023-04-12T06:03:04.866Z,17.42
2023-04-12T06:08:08.944Z,19.88
2023-04-12T06:13:12.491Z,20.20
2023-04-12T06:18:17.202Z,17.67
2023-04-12T06:23:20.402Z,14.90
2023-04-12T06:28:23.682Z,20.75
2023-04-12T06:33:28.665Z,16.88
2023-04-12T06:38:31.858Z,15.05
2023-04-12T06:43:35.012Z,19.40
2023-04-12T06:48:40.882Z,14.27
2023-04-12T06:53:44.903Z,13.68
2023-04-12T06:58:48.295Z,14.60
2023-04-12T07:03:53.169Z,15.88
2023-04-12T07:08:56.793Z,15.40
2023-04-12T07:14:00.424Z,13.05
2023-04-12T07:19:05.084Z,12.23
2023-04-12T07:24:08.748Z,13.35
2023-04-12T07:29:12.095Z,14.45
2023-04-12T07:34:16.814Z,13.98
2023-04-12T07:39:20.177Z,11.93
2023-04-12T07:44:23.391Z,13.93
2023-04-12T07:49:28.084Z,10.65
2023-04-12T07:54:31.455Z,10.05
2023-04-12T07:59:35.039Z,11.15
2023-04-12T08:04:41.993Z,12.57
2023-04-12T08:09:45.351Z,12.13
2023-04-12T08:14:48.619Z,10.27
2023-04-12T08:19:53.239Z,10.48
2023-04-12T08:24:56.528Z,10.82
2023-04-12T08:29:59.903Z,10.35
2023-04-12T08:35:04.626Z,9.35
2023-04-12T08:40:09.438Z,10.88
2023-04-12T08:45:14.238Z,14.43
2023-04-12T08:50:19.791Z,11.38
2023-04-12T08:55:23.201Z,14.60
2023-04-12T09:00:27.587Z,9.55
2023-04-12T09:05:32.882Z,9.90
2023-04-12T09:10:38.122Z,12.65
2023-04-12T09:15:50.476Z,10.25
2023-04-12T09:21:08.346Z,9.25
2023-04-12T09:26:28.608Z,11.00
2023-04-12T09:31:32.759Z,11.07
2023-04-12T09:36:46.288Z,7.43
2023-04-12T09:41:49.547Z,8.35
2023-04-12T09:46:53.356Z,9.32
2023-04-12T09:51:59.542Z,8.50
2023-04-12T09:57:05.517Z,11.23
2023-04-12T10:02:17.721Z,11.90
2023-04-12T10:07:22.895Z,11.25
2023-04-12T10:12:27.599Z,13.00
2023-04-12T10:17:31.174Z,10.32
2023-04-12T10:22:36.206Z,12.55
2023-04-12T10:27:41.560Z,12.32
2023-04-12T10:32:47.670Z,10.15
2023-04-12T10:38:07.478Z,9.40
2023-04-12T10:43:26.812Z,10.45
2023-04-12T10:48:32.587Z,9.73
2023-04-12T10:53:37.357Z,11.95
2023-04-12T10:58:58.061Z,10.43
2023-04-12T11:04:17.497Z,9.82
2023-04-12T11:09:27.953Z,14.15
2023-04-12T11:14:35.746Z,11.02
2023-04-12T11:19:40.838Z,10.32
2023-04-12T11:24:48.268Z,14.48
2023-04-12T11:29:54.636Z,10.43
2023-04-12T11:34:59.442Z,10.52
2023-04-12T11:40:06.364Z,8.38
2023-04-12T11:45:17.089Z,11.23
2023-04-12T11:50:31.282Z,10.02
2023-04-12T11:55:36.556Z,8.63
2023-04-12T12:00:42.856Z,11.90
2023-04-12T12:05:47.257Z,8.82
2023-04-12T12:11:06.276Z,15.35
2023-04-12T12:16:12.673Z,10.63
2023-04-12T12:21:17.063Z,9.55
2023-04-12T12:26:27.296Z,12.88
2023-04-12T12:31:31.245Z,10.23
2023-04-12T12:36:36.656Z,13.07
2023-04-12T12:41:42.478Z,12.35
2023-04-12T12:46:54.116Z,12.05
2023-04-12T12:52:00.491Z,11.82
2023-04-12T12:57:05.437Z,12.35
2023-04-12T13:02:09.412Z,13.48
2023-04-12T13:07:12.978Z,12.77
2023-04-12T13:12:18.272Z,12.43
2023-04-12T13:17:21.811Z,12.60
2023-04-12T13:22:25.334Z,13.15
2023-04-12T13:27:30.374Z,15.18
2023-04-12T13:32:34.102Z,11.93
2023-04-12T13:37:37.472Z,14.43
2023-04-12T13:42:42.147Z,11.95
2023-04-12T13:47:45.647Z,12.23
2023-04-12T13:52:49.081Z,13.32
2023-04-12T13:57:53.984Z,11.55
2023-04-12T14:02:58.238Z,14.10
2023-04-12T14:08:05.179Z,16.40
2023-04-12T14:13:10.309Z,12.88
2023-04-12T14:18:13.807Z,15.65
2023-04-12T14:23:18.723Z,17.38
2023-04-12T14:28:27.804Z,16.67
2023-04-12T14:33:31.423Z,19.35
2023-04-12T14:38:34.705Z,16.50
2023-04-12T14:43:39.791Z,27.88
2023-04-12T14:48:43.265Z,15.15
2023-04-12T14:53:47.379Z,15.40
2023-04-12T14:58:54.820Z,16.77
2023-04-12T15:04:01.685Z,18.63
2023-04-12T15:09:06.671Z,18.63
2023-04-12T15:14:14.855Z,19.08
2023-04-12T15:19:22.778Z,15.90
2023-04-12T15:24:27.126Z,19.35
2023-04-12T15:29:32.068Z,20.75
2023-04-12T15:34:35.603Z,18.80
2023-04-12T15:39:40.481Z,22.80
2023-04-12T15:44:45.628Z,19.85
2023-04-12T15:49:48.921Z,20.27
2023-04-12T15:54:52.983Z,28.55
2023-04-12T15:59:59.554Z,24.13
2023-04-12T16:05:03.300Z,30.35
2023-04-12T16:10:07.905Z,34.05
2023-04-12T16:15:13.386Z,25.27
2023-04-12T16:20:20.805Z,24.08
2023-04-12T16:25:25.636Z,33.90
2023-04-12T16:30:31.594Z,39.20
2023-04-12T16:35:35.333Z,36.75
2023-04-12T16:40:39.042Z,39.05
2023-04-12T16:45:46.360Z,88.63
2023-04-12T16:50:50.880Z,100.70
2023-04-12T16:55:57.939Z,142.73
2023-04-12T17:01:03.239Z,157.90
2023-04-12T17:06:07.716Z,103.60
2023-04-12T17:11:11.564Z,62.08
2023-04-12T17:16:16.877Z,68.95
2023-04-12T17:21:20.380Z,69.68
2023-04-12T17:26:27.408Z,87.18
2023-04-12T17:36:43.679Z,146.52
2023-04-12T17:41:47.934Z,76.03
2023-04-12T17:46:52.609Z,68.57
2023-04-12T17:51:56.084Z,59.00
2023-04-12T17:56:59.493Z,48.17
2023-04-12T18:02:04.531Z,48.78
2023-04-12T18:07:09.703Z,45.63
2023-04-12T18:12:13.206Z,48.50
2023-04-12T18:17:17.801Z,55.45
2023-04-12T18:22:21.312Z,66.03
2023-04-12T18:27:25.111Z,50.33
2023-04-12T18:32:30.028Z,42.33
2023-04-12T18:37:33.803Z,46.92
2023-04-12T18:42:37.266Z,75.28
2023-04-12T18:47:42.275Z,90.15
2023-04-12T18:52:45.582Z,111.00
2023-04-12T18:57:49.354Z,104.07
2023-04-12T19:02:54.072Z,248.98
2023-04-12T19:07:57.680Z,172.77
2023-04-12T19:13:02.226Z,95.88
2023-04-12T19:18:07.312Z,82.18
2023-04-12T19:23:11.231Z,89.68
2023-04-12T19:28:14.832Z,76.07
2023-04-12T19:33:20.056Z,84.95
2023-04-12T19:38:24.437Z,63.63
2023-04-12T19:43:28.160Z,44.45
2023-04-12T19:48:33.367Z,51.17
2023-04-12T19:53:36.985Z,46.67
2023-04-12T19:58:40.971Z,46.17
2023-04-12T20:03:46.114Z,52.50
2023-04-12T20:08:49.850Z,55.58
2023-04-12T20:13:53.074Z,63.72
2023-04-12T20:18:59.219Z,49.95
2023-04-12T20:24:04.011Z,47.53
2023-04-12T20:29:08.135Z,38.42
2023-04-12T20:34:13.223Z,38.92
2023-04-12T20:39:17.258Z,37.00
2023-04-12T20:44:21.239Z,51.60
2023-04-12T20:49:26.385Z,47.95
2023-04-12T20:54:31.671Z,44.38
2023-04-12T20:59:36.112Z,41.28
2023-04-12T21:04:41.305Z,42.53
2023-04-12T21:09:44.740Z,30.38
2023-04-12T21:14:50.457Z,36.88
2023-04-12T21:19:56.121Z,32.50
2023-04-12T21:24:59.370Z,26.23
2023-04-12T21:30:03.109Z,25.88
2023-04-12T21:35:11.270Z,24.77
2023-04-12T21:40:15.087Z,26.00
2023-04-12T21:45:18.451Z,20.95
2023-04-12T21:50:23.200Z,23.20
2023-04-12T21:55:28.456Z,20.55
2023-04-12T22:00:32.315Z,22.05
2023-04-12T22:05:39.962Z,24.02
2023-04-12T22:10:43.188Z,20.77
2023-04-12T22:15:46.557Z,20.02
2023-04-12T22:20:51.159Z,24.08
2023-04-12T22:25:58.559Z,28.00
2023-04-12T22:36:08.110Z,24.98
2023-04-12T22:41:11.311Z,23.15
2023-04-12T22:46:16.842Z,22.13
2023-04-12T22:51:21.646Z,28.23
2023-04-12T22:56:25.547Z,25.00
2023-04-12T23:01:29.574Z,23.20
2023-04-12T23:06:34.358Z,20.88
2023-04-12T23:11:39.929Z,21.15
2023-04-12T23:16:46.291Z,21.45
2023-04-12T23:21:51.165Z,23.50
2023-04-12T23:26:57.861Z,23.10
2023-04-12T23:32:01.636Z,21.88
2023-04-12T23:37:07.241Z,25.13
2023-04-12T23:42:11.817Z,19.75
2023-04-12T23:47:15.073Z,19.50
2023-04-12T23:52:19.750Z,21.60
2023-04-12T23:57:23.029Z,27.55
